map of CON home
CON - Airport
Location
City:  Concord, New Hampshire, United States
Name:Concord Municipal Airport
ICAO:KCON
IATA:CON
FAA LID:CON

Details
Type:Airport (Airfield)
Use:Public/Civil
Latitude:4312'10"N (43.202722)
Longitude:7130'08"W (-71.502277)
Datum:WGS 1984
Elevation:341 ft (104 m)
Variation:14.52W (WMM2015v2 magnetic declination)
0.09 annual change
Runways:2
Longest:6005 × 100 ft (1830 × 30.5 m), paved

Time
Time Zone:UTC-5 (DST-4)
Local Time:

Weather
METAR:KCON 041351Z AUTO 00000KT 7SM FEW075 01/M03 A3002 RMK AO2 SLP169 T00061028
TAF:KCON 041120Z 0412/0512 VRB03KT P6SM BKN100
FM050300 00000KT 2SM BR BKN003

Related Locations
Nearby:
Farthest:YAUG: 11724 mi / 18867 km
Augusta [Augusta Airport], WA, AU

Find:

   beyond  
but within

Other Information
Maps:
NOTAMs:
Links:
Sources:

  
  • flag of United States
  • flag of New Hampshire
  

Sectional Chart

Flight Planning
at skyvector.com

Satellite Image

Google Maps Satellite view

 

Copyright © 2004-2019 Karl L. Swartz. All rights reserved.
The Great Circle Mapper name and logo are trademarks of the Great Circle Mapper.
All other trademarks mentioned herein belong to their respective owners.
Please see credits for attibutions and further copyright information.

  Follow gcmap on Facebook Follow gcmap on Twitter GCmap on LinkedIn

hCard Microformat

Geo Microformat